createdAt,value
2023-04-08T00:00:58.242Z,8.37
2023-04-08T00:04:00.918Z,8.16
2023-04-08T00:07:03.619Z,7.84
2023-04-08T00:10:07.626Z,7.65
2023-04-08T00:13:10.378Z,7.66
2023-04-08T00:16:14.534Z,7.91
2023-04-08T00:19:17.175Z,8.17
2023-04-08T00:22:20.018Z,7.50
2023-04-08T00:25:24.797Z,7.64
2023-04-08T00:28:28.063Z,7.78
2023-04-08T00:31:32.051Z,7.91
2023-04-08T00:34:34.643Z,8.01
2023-04-08T00:37:37.256Z,8.14
2023-04-08T00:40:39.875Z,8.13
2023-04-08T00:43:42.474Z,8.12
2023-04-08T00:46:47.383Z,7.98
2023-04-08T00:49:50.448Z,8.11
2023-04-08T00:52:53.085Z,7.89
2023-04-08T00:55:55.705Z,8.14
2023-04-08T00:58:58.680Z,8.09
2023-04-08T01:02:13.592Z,8.37
2023-04-08T01:05:22.779Z,8.39
2023-04-08T01:08:29.755Z,8.18
2023-04-08T01:11:35.698Z,7.92
2023-04-08T01:14:43.933Z,8.12
2023-04-08T01:17:49.178Z,8.20
2023-04-08T01:20:53.148Z,8.27
2023-04-08T01:24:02.289Z,8.40
2023-04-08T01:27:07.895Z,8.04
2023-04-08T01:30:11.645Z,8.19
2023-04-08T01:33:16.315Z,8.02
2023-04-08T01:36:21.151Z,8.18
2023-04-08T01:39:25.059Z,8.21
2023-04-08T01:42:30.762Z,8.18
2023-04-08T01:45:33.342Z,7.94
2023-04-08T01:48:37.122Z,7.99
2023-04-08T01:51:40.474Z,8.21
2023-04-08T01:54:43.115Z,8.20
2023-04-08T01:57:50.841Z,8.16
2023-04-08T02:00:55.830Z,8.22
2023-04-08T02:04:00.411Z,8.00
2023-04-08T02:07:03.716Z,8.07
2023-04-08T02:10:07.500Z,7.98
2023-04-08T02:13:11.467Z,8.04
2023-04-08T02:16:19.584Z,8.25
2023-04-08T02:19:31.557Z,7.96
2023-04-08T02:22:41.824Z,8.11
2023-04-08T02:25:46.337Z,7.87
2023-04-08T02:28:51.074Z,8.03
2023-04-08T02:31:54.954Z,8.00
2023-04-08T02:34:58.905Z,7.84
2023-04-08T02:38:01.617Z,7.53
2023-04-08T02:41:04.393Z,7.64
2023-04-08T02:44:08.334Z,7.88
2023-04-08T02:47:10.957Z,8.01
2023-04-08T02:50:13.553Z,8.02
2023-04-08T02:53:16.168Z,7.94
2023-04-08T02:56:18.744Z,8.04
2023-04-08T02:59:22.722Z,7.98
2023-04-08T03:02:25.446Z,7.99
2023-04-08T03:05:28.206Z,7.26
2023-04-08T03:08:30.794Z,7.63
2023-04-08T03:11:33.415Z,7.71
2023-04-08T03:14:37.358Z,7.82
2023-04-08T03:17:40.042Z,7.67
2023-04-08T03:20:42.649Z,7.71
2023-04-08T03:23:45.635Z,7.67
2023-04-08T03:26:48.283Z,7.95
2023-04-08T03:29:53.010Z,7.60
2023-04-08T03:32:56.075Z,7.69
2023-04-08T03:35:58.817Z,7.61
2023-04-08T03:39:03.654Z,7.35
2023-04-08T03:42:06.248Z,7.45
2023-04-08T03:45:10.754Z,7.33
2023-04-08T03:48:13.347Z,7.42
2023-04-08T03:51:16.009Z,7.29
2023-04-08T03:54:18.687Z,7.23
2023-04-08T03:57:21.280Z,7.22
2023-04-08T04:00:25.457Z,7.05
2023-04-08T04:03:28.189Z,7.07
2023-04-08T04:06:31.107Z,7.32
2023-04-08T04:09:33.702Z,7.06
2023-04-08T04:12:36.307Z,7.44
2023-04-08T04:15:41.206Z,7.62
2023-04-08T04:18:43.913Z,7.63
2023-04-08T04:21:46.535Z,7.78
2023-04-08T04:24:49.506Z,7.44
2023-04-08T04:27:52.076Z,7.29
2023-04-08T04:30:56.728Z,7.51
2023-04-08T04:34:00.756Z,7.62
2023-04-08T04:37:03.503Z,7.74
2023-04-08T04:40:07.563Z,7.10
2023-04-08T04:43:10.299Z,7.13
2023-04-08T04:46:14.293Z,7.19
2023-04-08T04:49:16.906Z,7.55
2023-04-08T04:52:19.546Z,7.32
2023-04-08T04:55:23.349Z,7.50
2023-04-08T04:58:26.067Z,7.52
2023-04-08T05:01:30.056Z,7.39
2023-04-08T05:04:32.708Z,7.55
2023-04-08T05:07:36.932Z,7.73
2023-04-08T05:10:42.305Z,7.58
2023-04-08T05:13:44.966Z,7.41
2023-04-08T05:16:48.898Z,7.49
2023-04-08T05:19:51.965Z,7.16
2023-04-08T05:22:54.547Z,6.82
2023-04-08T05:25:57.178Z,7.03
2023-04-08T05:28:59.866Z,7.25
2023-04-08T05:32:03.835Z,7.26
2023-04-08T05:35:07.286Z,7.21
2023-04-08T05:38:09.922Z,7.34
2023-04-08T05:41:12.769Z,7.55
2023-04-08T05:44:15.494Z,7.39
2023-04-08T05:47:19.417Z,7.59
2023-04-08T05:50:22.012Z,7.42
2023-04-08T05:53:24.960Z,7.49
2023-04-08T05:56:27.564Z,7.24
2023-04-08T05:59:30.239Z,7.28
2023-04-08T06:02:34.261Z,7.24
2023-04-08T06:05:36.953Z,7.64
2023-04-08T06:08:39.528Z,7.37
2023-04-08T06:11:42.108Z,7.28
2023-04-08T06:14:44.764Z,7.53
2023-04-08T06:17:48.715Z,7.44
2023-04-08T06:20:51.545Z,7.40
2023-04-08T06:23:54.187Z,7.25
2023-04-08T06:26:57.168Z,7.64
2023-04-08T06:29:59.784Z,7.28
2023-04-08T06:33:03.785Z,7.61
2023-04-08T06:36:07.959Z,7.38
2023-04-08T06:39:10.619Z,7.39
2023-04-08T06:42:13.221Z,7.47
2023-04-08T06:45:15.820Z,7.56
2023-04-08T06:48:19.766Z,7.44
2023-04-08T06:51:22.386Z,7.84
2023-04-08T06:54:24.998Z,7.69
2023-04-08T06:57:27.599Z,7.92
2023-04-08T07:00:30.513Z,7.68
2023-04-08T07:03:34.617Z,7.58
2023-04-08T07:06:37.280Z,7.73
2023-04-08T07:09:41.358Z,7.43
2023-04-08T07:12:43.967Z,7.57
2023-04-08T07:15:46.755Z,7.85
2023-04-08T07:18:51.913Z,7.85
2023-04-08T07:21:54.820Z,7.59
2023-04-08T07:24:57.392Z,7.67
2023-04-08T07:27:59.962Z,7.69
2023-04-08T07:31:13.971Z,7.87
2023-04-08T07:34:17.958Z,7.95
2023-04-08T07:37:20.704Z,7.92
2023-04-08T07:40:23.274Z,7.60
2023-04-08T07:43:25.877Z,7.50
2023-04-08T07:46:28.467Z,7.77
2023-04-08T07:49:32.459Z,8.06
2023-04-08T07:52:35.129Z,7.95
2023-04-08T07:55:39.239Z,7.90
2023-04-08T07:58:42.207Z,8.05
2023-04-08T08:01:44.908Z,8.31
2023-04-08T08:04:48.948Z,7.90
2023-04-08T08:07:51.568Z,7.73
2023-04-08T08:10:54.144Z,7.60
2023-04-08T08:13:56.885Z,7.73
2023-04-08T08:16:59.596Z,8.12
2023-04-08T08:20:04.871Z,7.94
2023-04-08T08:23:07.450Z,7.94
2023-04-08T08:26:11.134Z,8.11
2023-04-08T08:29:13.783Z,8.26
2023-04-08T08:32:16.426Z,8.15
2023-04-08T08:35:20.402Z,8.15
2023-04-08T08:38:23.018Z,8.35
2023-04-08T08:41:25.652Z,8.32
2023-04-08T08:44:28.404Z,8.24
2023-04-08T08:47:31.982Z,8.38
2023-04-08T08:50:36.324Z,8.27
2023-04-08T08:53:39.188Z,8.43
2023-04-08T08:56:43.373Z,8.61
2023-04-08T08:59:47.289Z,8.48
2023-04-08T09:02:50.111Z,8.50
2023-04-08T09:05:56.570Z,8.51
2023-04-08T09:08:59.165Z,8.21
2023-04-08T09:12:04.891Z,8.67
2023-04-08T09:15:09.370Z,8.76
2023-04-08T09:18:22.825Z,8.84
2023-04-08T09:21:27.382Z,8.90
2023-04-08T09:24:31.908Z,8.65
2023-04-08T09:27:35.919Z,8.37
2023-04-08T09:30:38.751Z,8.11
2023-04-08T09:33:41.367Z,8.33
2023-04-08T09:36:45.714Z,8.50
2023-04-08T09:39:48.784Z,8.46
2023-04-08T09:42:56.184Z,8.32
2023-04-08T09:46:02.527Z,8.32
2023-04-08T09:49:08.252Z,8.47
2023-04-08T09:52:17.938Z,8.71
2023-04-08T09:55:23.584Z,8.68
2023-04-08T09:58:29.693Z,8.52
2023-04-08T10:01:39.152Z,8.25
2023-04-08T10:04:45.354Z,8.58
2023-04-08T10:07:51.354Z,8.86
2023-04-08T10:10:56.254Z,8.94
2023-04-08T10:13:58.918Z,8.93
2023-04-08T10:17:27.427Z,8.79
2023-04-08T10:20:45.842Z,8.93
2023-04-08T10:23:59.289Z,9.10
2023-04-08T10:27:04.257Z,8.60
2023-04-08T10:30:40.116Z,8.89
2023-04-08T10:33:42.718Z,8.73
2023-04-08T10:36:45.335Z,8.43
2023-04-08T10:39:52.933Z,8.47
2023-04-08T10:42:55.920Z,8.43
2023-04-08T10:45:58.513Z,8.45
2023-04-08T10:49:01.844Z,8.66
2023-04-08T10:52:08.358Z,8.64
2023-04-08T10:55:12.854Z,8.64
2023-04-08T10:58:15.540Z,8.88
2023-04-08T11:01:18.421Z,8.83
2023-04-08T11:04:23.570Z,8.82
2023-04-08T11:07:27.060Z,8.85
2023-04-08T11:10:31.841Z,8.71
2023-04-08T11:13:34.517Z,8.83
2023-04-08T11:16:39.088Z,8.60
2023-04-08T11:19:41.904Z,9.01
2023-04-08T11:22:45.900Z,8.63
2023-04-08T11:25:50.072Z,8.77
2023-04-08T11:28:53.350Z,8.87
2023-04-08T11:31:56.229Z,8.86
2023-04-08T11:35:01.190Z,9.04
2023-04-08T11:38:06.108Z,8.74
2023-04-08T11:41:11.511Z,9.12
2023-04-08T11:44:14.218Z,9.19
2023-04-08T11:47:16.888Z,9.09
2023-04-08T11:50:25.860Z,9.11
2023-04-08T11:53:28.567Z,9.24
2023-04-08T11:56:33.615Z,9.11
2023-04-08T11:59:36.256Z,8.85
2023-04-08T12:02:38.968Z,8.78
2023-04-08T12:05:42.489Z,8.91
2023-04-08T12:08:45.150Z,9.42
2023-04-08T12:11:49.288Z,9.42
2023-04-08T12:14:51.891Z,9.16
2023-04-08T12:17:54.489Z,9.63
2023-04-08T12:20:57.338Z,9.74
2023-04-08T12:23:59.920Z,9.43
2023-04-08T12:27:04.973Z,9.22
2023-04-08T12:30:08.815Z,9.20
2023-04-08T12:33:11.409Z,9.25
2023-04-08T12:36:14.075Z,9.59
2023-04-08T12:39:16.720Z,9.61
2023-04-08T12:42:20.784Z,9.56
2023-04-08T12:45:23.421Z,9.75
2023-04-08T12:48:26.398Z,9.72
2023-04-08T12:51:29.416Z,9.28
2023-04-08T12:54:32.711Z,9.53
2023-04-08T12:57:36.676Z,9.08
2023-04-08T13:00:40.147Z,9.23
2023-04-08T13:03:44.965Z,9.53
2023-04-08T13:06:49.231Z,9.68
2023-04-08T13:35:20.787Z,9.34
2023-04-08T13:38:23.400Z,9.28
2023-04-08T13:41:28.006Z,9.56
2023-04-08T13:44:30.645Z,9.61
2023-04-08T13:47:34.240Z,9.66
2023-04-08T13:50:40.314Z,9.67
2023-04-08T13:53:42.893Z,9.75
2023-04-08T13:56:45.732Z,9.79
2023-04-08T13:59:48.324Z,9.56
2023-04-08T14:02:51.481Z,9.53
2023-04-08T14:05:55.560Z,9.82
2023-04-08T14:08:58.130Z,9.85
2023-04-08T14:12:00.754Z,9.95
2023-04-08T14:15:03.737Z,9.92
2023-04-08T14:18:08.636Z,10.06
2023-04-08T14:21:15.652Z,9.78
2023-04-08T14:24:18.367Z,9.92
2023-04-08T14:27:21.163Z,10.07
2023-04-08T14:30:23.855Z,9.86
2023-04-08T14:33:27.127Z,9.95
2023-04-08T14:36:31.391Z,9.86
2023-04-08T14:39:34.027Z,9.86
2023-04-08T14:42:36.629Z,9.93
2023-04-08T14:45:39.207Z,9.84
2023-04-08T14:48:41.816Z,9.58
2023-04-08T14:51:45.750Z,9.53
2023-04-08T14:54:48.322Z,9.19
2023-04-08T14:57:50.937Z,9.32
2023-04-08T15:00:53.601Z,9.64
2023-04-08T15:03:56.259Z,9.62
2023-04-08T15:07:00.408Z,9.28
2023-04-08T15:10:03.152Z,9.49
2023-04-08T15:13:05.821Z,9.57
2023-04-08T15:16:08.555Z,9.33
2023-04-08T15:19:11.609Z,9.23
2023-04-08T15:22:15.598Z,9.26
2023-04-08T15:25:18.346Z,9.43
2023-04-08T15:28:21.138Z,9.36
2023-04-08T15:31:23.788Z,9.29
2023-04-08T15:34:27.057Z,9.15
2023-04-08T15:37:30.982Z,9.11
2023-04-08T15:40:34.466Z,9.32
2023-04-08T15:43:37.080Z,9.51
2023-04-08T15:46:39.758Z,9.22
2023-04-08T15:49:42.524Z,9.42
2023-04-08T15:52:46.535Z,9.28
2023-04-08T15:55:50.162Z,9.40
2023-04-08T15:58:53.264Z,9.47
2023-04-08T16:01:56.072Z,9.33
2023-04-08T16:04:58.710Z,9.34
2023-04-08T16:08:02.665Z,9.45
2023-04-08T16:11:06.975Z,9.35
2023-04-08T16:14:09.591Z,9.37
2023-04-08T16:17:12.156Z,9.42
2023-04-08T16:20:14.937Z,9.15
2023-04-08T16:23:18.899Z,9.22
2023-04-08T16:26:22.256Z,9.51
2023-04-08T16:29:25.124Z,9.49
2023-04-08T16:32:27.861Z,9.34
2023-04-08T16:35:30.458Z,9.44
2023-04-08T16:38:35.434Z,9.59
2023-04-08T16:41:39.317Z,9.15
2023-04-08T16:44:41.987Z,9.52
2023-04-08T16:47:45.932Z,9.31
2023-04-08T16:50:48.724Z,9.43
2023-04-08T16:53:53.159Z,9.39
2023-04-08T16:56:56.940Z,8.96
2023-04-08T16:59:59.531Z,9.01
2023-04-08T17:03:02.340Z,9.32
2023-04-08T17:06:08.901Z,9.26
2023-04-08T17:09:13.012Z,9.40
2023-04-08T17:12:15.831Z,9.35
2023-04-08T17:15:18.512Z,9.03
2023-04-08T17:18:21.080Z,8.93
2023-04-08T17:21:23.714Z,9.18
2023-04-08T17:24:27.689Z,9.14
2023-04-08T17:27:30.317Z,9.24
2023-04-08T17:30:32.930Z,9.26
2023-04-08T17:33:35.536Z,9.42
2023-04-08T17:36:38.112Z,9.48
2023-04-08T17:39:42.062Z,9.44
2023-04-08T17:42:44.685Z,9.33
2023-04-08T17:45:49.959Z,9.44
2023-04-08T17:48:55.350Z,9.47
2023-04-08T17:51:57.923Z,9.46
2023-04-08T17:55:02.439Z,9.44
2023-04-08T17:58:05.298Z,9.43
2023-04-08T18:01:07.948Z,9.48
2023-04-08T18:04:12.224Z,9.39
2023-04-08T18:07:15.289Z,9.44
2023-04-08T18:10:19.429Z,9.49
2023-04-08T18:13:22.045Z,9.48
2023-04-08T18:16:24.656Z,9.46
2023-04-08T18:19:27.276Z,9.45
2023-04-08T18:22:29.838Z,9.20
2023-04-08T18:25:34.420Z,9.17
2023-04-08T18:28:37.094Z,9.22
2023-04-08T18:31:39.702Z,9.06
2023-04-08T18:34:42.309Z,9.36
2023-04-08T18:37:44.899Z,9.35
2023-04-08T18:40:48.839Z,9.33
2023-04-08T18:43:51.867Z,9.29
2023-04-08T18:46:54.687Z,9.26
2023-04-08T18:49:57.592Z,9.30
2023-04-08T18:53:00.212Z,9.38
2023-04-08T18:56:04.704Z,9.37
2023-04-08T18:59:07.382Z,9.28
2023-04-08T19:02:10.095Z,9.31
2023-04-08T19:05:12.792Z,9.26
2023-04-08T19:08:15.413Z,9.19
2023-04-08T19:11:19.500Z,9.28
2023-04-08T19:14:22.080Z,9.26
2023-04-08T19:17:24.688Z,9.15
2023-04-08T19:20:28.440Z,9.16
2023-04-08T19:23:32.035Z,9.21
2023-04-08T19:26:36.316Z,9.21
2023-04-08T19:29:38.893Z,9.01
2023-04-08T19:32:43.025Z,8.99
2023-04-08T19:35:45.723Z,9.11
2023-04-08T19:38:48.298Z,9.15
2023-04-08T19:41:52.328Z,9.08
2023-04-08T19:44:55.229Z,9.08
2023-04-08T19:47:58.007Z,8.84
2023-04-08T19:51:00.831Z,8.93
2023-04-08T19:54:03.439Z,9.11
2023-04-08T19:57:11.548Z,9.13
2023-04-08T20:00:14.465Z,9.09
2023-04-08T20:03:17.475Z,8.77
2023-04-08T20:06:20.914Z,8.98
2023-04-08T20:09:23.578Z,9.03
2023-04-08T20:12:27.546Z,9.06
2023-04-08T20:15:30.236Z,9.10
2023-04-08T20:18:33.297Z,9.11
2023-04-08T20:21:35.894Z,9.07
2023-04-08T20:24:38.454Z,8.90
2023-04-08T20:27:42.887Z,9.01
2023-04-08T20:30:45.638Z,9.02
2023-04-08T20:33:48.223Z,8.89
2023-04-08T20:36:50.915Z,8.96
2023-04-08T20:39:54.008Z,9.04
2023-04-08T20:42:57.999Z,8.87
2023-04-08T20:46:00.989Z,8.95
2023-04-08T20:49:04.148Z,9.06
2023-04-08T20:52:06.968Z,9.07
2023-04-08T20:55:10.429Z,8.95
2023-04-08T20:58:14.365Z,8.91
2023-04-08T21:01:17.006Z,8.87
2023-04-08T21:04:19.606Z,8.90
2023-04-08T21:07:22.161Z,8.81
2023-04-08T21:10:24.931Z,8.96
2023-04-08T21:13:28.849Z,9.01
2023-04-08T21:16:31.462Z,8.92
2023-04-08T21:19:34.107Z,8.75
2023-04-08T21:22:36.672Z,8.52
2023-04-08T21:25:39.331Z,8.67
2023-04-08T21:28:43.930Z,8.79
2023-04-08T21:31:46.703Z,8.82
2023-04-08T21:34:49.344Z,8.91
2023-04-08T21:37:52.022Z,8.87
2023-04-08T21:40:54.588Z,8.90
2023-04-08T21:43:59.187Z,8.94
2023-04-08T21:47:02.165Z,8.84
2023-04-08T21:50:05.547Z,8.84
2023-04-08T21:53:08.372Z,8.88
2023-04-08T21:56:11.218Z,8.87
2023-04-08T21:59:15.219Z,8.80
2023-04-08T22:02:17.869Z,8.81
2023-04-08T22:05:20.584Z,8.76
2023-04-08T22:08:23.194Z,8.83
2023-04-08T22:11:25.848Z,8.87
2023-04-08T22:14:29.886Z,8.85
2023-04-08T22:17:32.734Z,8.69
2023-04-08T22:20:36.456Z,8.86
2023-04-08T22:23:39.079Z,8.81
2023-04-08T22:26:41.709Z,8.82
2023-04-08T22:29:45.833Z,8.85
2023-04-08T22:32:48.464Z,8.86
2023-04-08T22:35:51.299Z,8.87
2023-04-08T22:38:54.162Z,8.87
2023-04-08T22:41:57.418Z,8.87
2023-04-08T22:45:01.824Z,8.88
2023-04-08T22:48:04.813Z,8.86
2023-04-08T22:51:07.419Z,8.81
2023-04-08T22:54:10.231Z,8.82
2023-04-08T22:57:12.801Z,8.88
2023-04-08T23:00:16.945Z,8.86
2023-04-08T23:03:19.566Z,8.81
2023-04-08T23:06:22.200Z,8.85
2023-04-08T23:09:26.623Z,8.82
2023-04-08T23:12:29.202Z,8.86
2023-04-08T23:15:33.176Z,8.83
2023-04-08T23:18:35.854Z,8.86
2023-04-08T23:21:38.460Z,8.80
2023-04-08T23:24:41.044Z,8.78
2023-04-08T23:27:43.634Z,8.78
2023-04-08T23:30:47.727Z,8.81
2023-04-08T23:33:50.910Z,8.85
2023-04-08T23:36:53.507Z,8.73
2023-04-08T23:39:56.352Z,8.71
2023-04-08T23:42:59.066Z,8.75
2023-04-08T23:46:03.214Z,8.69
2023-04-08T23:49:05.890Z,8.71
2023-04-08T23:52:08.475Z,8.72
2023-04-08T23:55:11.460Z,8.74
2023-04-08T23:58:14.257Z,8.74
